createdAt,value
2023-07-18T00:01:15.580Z,2.80
2023-07-18T00:03:46.775Z,2.60
2023-07-18T00:06:20.937Z,2.60
2023-07-18T00:08:49.529Z,3.20
2023-07-18T00:11:25.310Z,2.90
2023-07-18T00:14:18.327Z,2.80
2023-07-18T00:16:53.089Z,2.90
2023-07-18T00:19:25.211Z,2.60
2023-07-18T00:24:22.487Z,2.70
2023-07-18T00:27:05.362Z,2.50
2023-07-18T00:29:34.151Z,2.70
2023-07-18T00:32:05.768Z,2.10
2023-07-18T00:34:34.625Z,2.60
2023-07-18T00:37:04.181Z,2.30
2023-07-18T00:39:33.127Z,2.70
2023-07-18T00:42:02.018Z,3.00
2023-07-18T00:44:33.777Z,3.00
2023-07-18T00:47:02.872Z,2.80
2023-07-18T00:49:32.079Z,2.50
2023-07-18T00:52:02.495Z,2.90
2023-07-18T00:54:37.525Z,2.70
2023-07-18T00:57:08.728Z,2.30
2023-07-18T00:59:41.968Z,2.80
2023-07-18T01:02:20.610Z,2.40
2023-07-18T01:04:49.473Z,2.70
2023-07-18T01:07:22.827Z,2.90
2023-07-18T01:09:54.741Z,2.50
2023-07-18T01:12:23.409Z,2.60
2023-07-18T01:14:53.335Z,3.20
2023-07-18T01:17:24.616Z,2.40
2023-07-18T01:19:53.668Z,2.80
2023-07-18T01:22:25.338Z,2.90
2023-07-18T01:24:54.416Z,2.70
2023-07-18T01:27:38.368Z,2.50
2023-07-18T01:30:20.597Z,2.80
2023-07-18T01:32:50.334Z,2.70
2023-07-18T01:35:30.781Z,2.50
2023-07-18T01:38:12.277Z,2.90
2023-07-18T01:40:45.718Z,2.70
2023-07-18T01:43:14.199Z,3.00
2023-07-18T01:45:43.017Z,2.40
2023-07-18T01:48:12.004Z,2.60
2023-07-18T01:50:42.905Z,2.40
2023-07-18T01:56:20.487Z,2.60
2023-07-18T01:58:52.488Z,2.50
2023-07-18T02:01:24.436Z,3.20
2023-07-18T02:03:55.495Z,3.00
2023-07-18T02:06:42.101Z,3.10
2023-07-18T02:09:17.891Z,2.70
2023-07-18T02:11:55.955Z,2.60
2023-07-18T02:14:30.477Z,2.70
2023-07-18T02:17:06.958Z,3.10
2023-07-18T02:19:39.532Z,2.50
2023-07-18T02:22:30.957Z,3.40
2023-07-18T02:25:27.905Z,3.30
2023-07-18T02:27:59.902Z,3.50
2023-07-18T02:31:05.461Z,2.90
2023-07-18T02:33:36.772Z,2.90
2023-07-18T02:36:13.118Z,3.60
2023-07-18T02:38:41.821Z,3.30
2023-07-18T02:41:16.341Z,3.60
2023-07-18T02:44:08.819Z,3.90
2023-07-18T02:46:46.087Z,4.20
2023-07-18T02:49:15.250Z,3.20
2023-07-18T02:52:26.597Z,3.30
2023-07-18T02:55:05.569Z,3.60
2023-07-18T02:57:39.588Z,3.50
2023-07-18T03:00:27.431Z,3.80
2023-07-18T03:02:58.722Z,3.40
2023-07-18T03:05:51.952Z,3.10
2023-07-18T03:08:20.988Z,3.80
2023-07-18T03:11:06.215Z,3.60
2023-07-18T03:13:45.106Z,3.80
2023-07-18T03:16:19.076Z,4.00
2023-07-18T03:18:55.486Z,3.70
2023-07-18T03:21:32.663Z,4.00
2023-07-18T03:24:02.015Z,4.40
2023-07-18T03:26:41.925Z,4.60
2023-07-18T03:29:35.535Z,4.50
2023-07-18T03:32:11.189Z,5.80
2023-07-18T03:34:42.952Z,4.90
2023-07-18T03:37:11.994Z,5.00
2023-07-18T03:39:41.919Z,4.90
2023-07-18T03:42:19.501Z,4.40
2023-07-18T03:45:22.986Z,5.40
2023-07-18T03:48:25.216Z,4.90
2023-07-18T03:51:06.926Z,4.70
2023-07-18T03:54:04.108Z,5.50
2023-07-18T03:56:35.799Z,5.10
2023-07-18T03:59:07.928Z,6.10
2023-07-18T04:01:39.294Z,6.40
2023-07-18T04:04:08.097Z,5.40
2023-07-18T04:06:39.892Z,6.00
2023-07-18T04:09:08.611Z,6.20
2023-07-18T04:11:47.487Z,6.00
2023-07-18T04:14:16.132Z,6.00
2023-07-18T04:16:44.727Z,5.90
2023-07-18T04:19:16.262Z,6.00
2023-07-18T04:21:44.840Z,5.80
2023-07-18T04:24:13.319Z,5.80
2023-07-18T04:26:41.712Z,6.30
2023-07-18T04:29:10.279Z,5.90
2023-07-18T04:31:38.564Z,6.20
2023-07-18T04:34:06.880Z,6.40
2023-07-18T04:36:35.415Z,6.30
2023-07-18T04:39:03.999Z,5.50
2023-07-18T04:41:41.172Z,6.40
2023-07-18T04:44:13.931Z,6.80
2023-07-18T04:46:42.860Z,6.10
2023-07-18T04:49:14.331Z,6.20
2023-07-18T04:51:45.305Z,5.80
2023-07-18T04:54:16.095Z,6.10
2023-07-18T04:56:44.569Z,6.30
2023-07-18T04:59:12.978Z,6.20
2023-07-18T05:01:44.550Z,5.90
2023-07-18T05:04:13.402Z,6.30
2023-07-18T05:06:45.318Z,6.30
2023-07-18T05:09:13.688Z,5.70
2023-07-18T05:11:44.915Z,6.10
2023-07-18T05:14:13.238Z,6.20
2023-07-18T05:16:44.159Z,6.20
2023-07-18T05:19:12.659Z,5.70
2023-07-18T05:21:40.847Z,6.00
2023-07-18T05:24:09.275Z,6.10
2023-07-18T05:26:37.700Z,5.70
2023-07-18T05:29:06.071Z,6.40
2023-07-18T05:31:34.513Z,5.80
2023-07-18T05:34:02.908Z,5.90
2023-07-18T05:36:31.104Z,7.10
2023-07-18T05:38:59.506Z,6.50
2023-07-18T05:41:27.833Z,6.10
2023-07-18T05:43:56.131Z,6.00
2023-07-18T05:46:24.432Z,5.60
2023-07-18T05:48:52.889Z,5.40
2023-07-18T05:51:21.945Z,5.70
2023-07-18T05:53:50.586Z,5.30
2023-07-18T05:56:19.256Z,6.00
2023-07-18T05:58:47.530Z,5.10
2023-07-18T06:01:16.404Z,5.60
2023-07-18T06:03:44.780Z,5.40
2023-07-18T06:06:13.088Z,5.10
2023-07-18T06:08:44.406Z,5.40
2023-07-18T06:11:12.672Z,5.50
2023-07-18T06:13:42.651Z,6.10
2023-07-18T06:16:13.284Z,5.30
2023-07-18T06:18:42.970Z,4.50
2023-07-18T06:21:11.501Z,5.00
2023-07-18T06:23:40.089Z,5.50
2023-07-18T06:26:08.708Z,5.40
2023-07-18T06:28:37.182Z,4.90
2023-07-18T06:31:05.579Z,4.90
2023-07-18T06:33:47.230Z,5.30
2023-07-18T06:36:17.300Z,5.10
2023-07-18T06:38:48.834Z,4.80
2023-07-18T06:41:18.059Z,5.10
2023-07-18T06:43:49.785Z,5.00
2023-07-18T06:46:18.273Z,4.90
2023-07-18T06:48:46.550Z,4.40
2023-07-18T06:51:16.041Z,4.10
2023-07-18T06:53:44.630Z,4.70
2023-07-18T06:56:13.205Z,4.30
2023-07-18T06:58:42.926Z,4.10
2023-07-18T07:01:23.924Z,4.20
2023-07-18T07:03:52.980Z,4.10
2023-07-18T07:06:21.554Z,4.00
2023-07-18T07:08:49.771Z,4.30
2023-07-18T07:11:18.460Z,4.70
2023-07-18T07:13:47.324Z,3.80
2023-07-18T07:16:15.821Z,4.50
2023-07-18T07:18:44.269Z,3.70
2023-07-18T07:21:12.636Z,4.40
2023-07-18T07:23:40.974Z,4.00
2023-07-18T07:26:12.065Z,4.30
2023-07-18T07:28:41.408Z,4.50
2023-07-18T07:31:10.426Z,4.70
2023-07-18T07:33:38.743Z,5.10
2023-07-18T07:36:07.222Z,4.80
2023-07-18T07:38:35.834Z,5.00
2023-07-18T07:41:06.232Z,4.70
2023-07-18T07:43:34.832Z,5.50
2023-07-18T07:46:03.749Z,5.30
2023-07-18T07:48:32.218Z,5.50
2023-07-18T07:51:07.194Z,5.50
2023-07-18T07:53:35.628Z,5.50
2023-07-18T07:56:04.495Z,7.30
2023-07-18T07:58:32.788Z,7.50
2023-07-18T08:01:02.628Z,7.30
2023-07-18T08:03:30.973Z,6.60
2023-07-18T08:06:00.203Z,6.50
2023-07-18T08:08:28.580Z,7.40
2023-07-18T08:10:57.213Z,6.20
2023-07-18T08:13:26.347Z,6.50
2023-07-18T08:15:55.324Z,7.50
2023-07-18T08:18:26.442Z,6.40
2023-07-18T08:20:55.125Z,7.20
2023-07-18T08:23:23.909Z,7.10
2023-07-18T08:25:52.288Z,6.30
2023-07-18T08:28:20.988Z,6.60
2023-07-18T08:30:49.367Z,5.90
2023-07-18T08:33:20.715Z,6.90
2023-07-18T08:35:50.667Z,6.80
2023-07-18T08:38:19.609Z,6.40
2023-07-18T08:40:49.625Z,7.20
2023-07-18T08:43:19.600Z,7.60
2023-07-18T08:45:49.113Z,7.10
2023-07-18T08:48:17.887Z,7.10
2023-07-18T08:50:46.620Z,7.30
2023-07-18T08:53:20.657Z,7.00
2023-07-18T08:55:49.760Z,6.50
2023-07-18T08:58:21.509Z,6.50
2023-07-18T09:00:53.234Z,7.10
2023-07-18T09:05:51.235Z,6.90
2023-07-18T09:08:23.294Z,6.90
2023-07-18T09:11:22.183Z,7.50
2023-07-18T09:13:51.521Z,6.80
2023-07-18T09:16:23.698Z,7.20
2023-07-18T09:18:54.586Z,8.10
2023-07-18T09:21:24.747Z,7.70
2023-07-18T09:23:54.241Z,7.20
2023-07-18T09:26:23.320Z,7.00
2023-07-18T09:28:52.985Z,6.40
2023-07-18T09:31:24.434Z,6.30
2023-07-18T09:36:26.978Z,6.40
2023-07-18T09:39:02.820Z,6.10
2023-07-18T09:41:33.243Z,6.60
2023-07-18T09:44:27.489Z,6.60
2023-07-18T09:46:52.781Z,6.60
2023-07-18T09:49:24.850Z,6.40
2023-07-18T09:52:17.576Z,6.30
2023-07-18T09:54:46.430Z,6.20
2023-07-18T09:57:17.721Z,5.30
2023-07-18T10:00:02.228Z,5.30
2023-07-18T10:02:40.273Z,5.70
2023-07-18T10:05:15.501Z,4.90
2023-07-18T10:07:44.978Z,5.20
2023-07-18T10:10:14.337Z,5.50
2023-07-18T10:12:55.529Z,5.10
2023-07-18T10:15:26.604Z,5.20
2023-07-18T10:17:55.476Z,5.60
2023-07-18T10:20:38.193Z,5.50
2023-07-18T10:23:07.787Z,5.90
2023-07-18T10:25:36.217Z,5.40
2023-07-18T10:28:08.438Z,5.50
2023-07-18T10:30:43.866Z,5.40
2023-07-18T10:33:18.904Z,5.50
2023-07-18T10:35:49.670Z,5.30
2023-07-18T10:38:27.149Z,5.40
2023-07-18T10:40:55.837Z,5.30
2023-07-18T10:43:24.097Z,5.50
2023-07-18T10:45:53.808Z,5.60
2023-07-18T10:48:22.273Z,4.50
2023-07-18T10:50:51.210Z,5.10
2023-07-18T10:53:29.553Z,4.80
2023-07-18T10:55:59.226Z,5.50
2023-07-18T10:58:27.810Z,5.10
2023-07-18T11:01:05.412Z,5.20
2023-07-18T11:03:40.563Z,5.40
2023-07-18T11:06:09.941Z,5.80
2023-07-18T11:08:41.493Z,5.40
2023-07-18T11:11:10.487Z,5.20
2023-07-18T11:13:40.726Z,5.60
2023-07-18T11:16:18.317Z,5.70
2023-07-18T11:18:49.780Z,5.60
2023-07-18T11:21:20.570Z,5.90
2023-07-18T11:23:49.468Z,5.80
2023-07-18T11:26:19.814Z,5.90
2023-07-18T11:28:53.125Z,6.10
2023-07-18T11:34:06.600Z,6.30
2023-07-18T11:36:48.489Z,5.50
2023-07-18T11:41:54.136Z,6.40
2023-07-18T11:44:26.965Z,6.10
2023-07-18T11:46:56.479Z,6.70
2023-07-18T11:49:37.779Z,6.20
2023-07-18T11:52:09.504Z,5.50
2023-07-18T11:57:11.317Z,6.00
2023-07-18T11:59:43.191Z,6.10
2023-07-18T12:02:11.864Z,6.70
2023-07-18T12:07:11.487Z,5.50
2023-07-18T12:09:40.167Z,5.60
2023-07-18T12:12:08.842Z,5.20
2023-07-18T12:14:37.309Z,6.10
2023-07-18T12:17:06.374Z,4.30
2023-07-18T12:19:55.049Z,4.70
2023-07-18T12:22:23.424Z,4.80
2023-07-18T12:24:52.147Z,4.70
2023-07-18T12:27:20.543Z,4.60
2023-07-18T12:29:49.302Z,3.70
2023-07-18T12:32:17.718Z,3.00
2023-07-18T12:34:49.459Z,3.00
2023-07-18T12:37:18.210Z,3.10
2023-07-18T12:39:46.850Z,2.80
2023-07-18T12:42:15.476Z,3.10
2023-07-18T12:44:48.565Z,3.20
2023-07-18T12:47:18.325Z,2.70
2023-07-18T12:52:18.594Z,2.80
2023-07-18T12:54:49.237Z,2.80
2023-07-18T12:57:17.579Z,3.10
2023-07-18T12:59:46.047Z,3.10
2023-07-18T13:02:17.299Z,2.20
2023-07-18T13:04:49.123Z,2.80
2023-07-18T13:07:17.917Z,2.80
2023-07-18T13:09:46.710Z,2.60
2023-07-18T13:12:15.173Z,2.50
2023-07-18T13:14:46.016Z,2.50
2023-07-18T13:17:18.118Z,2.40
2023-07-18T13:19:49.017Z,2.30
2023-07-18T13:22:21.525Z,2.60
2023-07-18T13:24:50.019Z,2.30
2023-07-18T13:27:18.760Z,2.90
2023-07-18T13:29:47.545Z,2.60
2023-07-18T13:32:18.596Z,2.60
2023-07-18T13:34:47.170Z,2.80
2023-07-18T13:37:15.688Z,2.50
2023-07-18T13:39:44.129Z,2.70
2023-07-18T13:42:22.401Z,2.80
2023-07-18T13:47:23.431Z,3.10
2023-07-18T13:49:53.213Z,2.70
2023-07-18T13:52:23.349Z,2.80
2023-07-18T13:55:01.078Z,2.80
2023-07-18T13:57:30.807Z,2.80
2023-07-18T14:00:00.893Z,2.90
2023-07-18T14:02:29.649Z,2.80
2023-07-18T14:04:58.747Z,2.50
2023-07-18T14:07:27.422Z,3.10
2023-07-18T14:10:04.612Z,2.60
2023-07-18T14:12:33.394Z,2.10
2023-07-18T14:15:06.155Z,2.40
2023-07-18T14:17:37.549Z,2.60
2023-07-18T14:20:34.076Z,2.50
2023-07-18T14:23:04.139Z,2.60
2023-07-18T14:25:33.094Z,2.50
2023-07-18T14:28:10.834Z,2.30
2023-07-18T14:30:46.731Z,2.30
2023-07-18T14:33:19.177Z,2.00
2023-07-18T14:35:50.757Z,2.30
2023-07-18T14:38:19.495Z,2.50
2023-07-18T14:40:49.400Z,2.20
2023-07-18T14:43:29.228Z,2.20
2023-07-18T14:45:58.515Z,2.50
2023-07-18T14:48:27.249Z,2.30
2023-07-18T14:50:56.320Z,2.20
2023-07-18T14:53:25.374Z,1.80
2023-07-18T14:55:54.178Z,1.70
2023-07-18T14:58:34.017Z,1.90
2023-07-18T15:01:29.471Z,1.90
2023-07-18T15:04:18.424Z,2.20
2023-07-18T15:06:47.034Z,1.80
2023-07-18T15:09:18.959Z,1.70
2023-07-18T15:11:51.012Z,1.80
2023-07-18T15:14:19.615Z,1.90
2023-07-18T15:16:58.393Z,2.00
2023-07-18T15:19:26.977Z,2.10
2023-07-18T15:21:57.884Z,1.70
2023-07-18T15:24:26.651Z,1.80
2023-07-18T15:26:55.500Z,1.90
2023-07-18T15:29:24.178Z,1.80
2023-07-18T15:31:52.610Z,1.50
2023-07-18T15:34:21.141Z,1.90
2023-07-18T15:36:49.739Z,1.70
2023-07-18T15:39:18.407Z,1.90
2023-07-18T15:41:49.141Z,1.90
2023-07-18T15:44:17.834Z,1.50
2023-07-18T15:46:46.826Z,1.60
2023-07-18T15:49:15.354Z,1.70
2023-07-18T15:51:43.994Z,1.90
2023-07-18T15:54:12.529Z,1.70
2023-07-18T15:56:44.015Z,1.60
2023-07-18T15:59:15.307Z,1.60
2023-07-18T16:01:51.846Z,1.60
2023-07-18T16:04:23.161Z,1.60
2023-07-18T16:07:00.803Z,1.90
2023-07-18T16:09:32.099Z,1.90
2023-07-18T16:12:02.954Z,1.80
2023-07-18T16:14:32.452Z,1.70
2023-07-18T16:17:02.169Z,2.00
2023-07-18T16:19:30.696Z,1.80
2023-07-18T16:22:01.468Z,1.90
2023-07-18T16:24:29.975Z,1.50
2023-07-18T16:27:03.660Z,1.70
2023-07-18T16:29:32.255Z,1.90
2023-07-18T16:32:01.108Z,2.00
2023-07-18T16:34:29.938Z,2.30
2023-07-18T16:37:00.963Z,1.90
2023-07-18T16:39:33.468Z,1.80
2023-07-18T16:42:21.831Z,1.80
2023-07-18T16:44:52.730Z,2.30
2023-07-18T16:47:32.780Z,2.10
2023-07-18T16:50:20.547Z,1.90
2023-07-18T16:52:51.928Z,2.30
2023-07-18T16:55:20.858Z,2.30
2023-07-18T16:57:49.438Z,2.40
2023-07-18T17:00:38.298Z,2.90
2023-07-18T17:03:07.165Z,2.30
2023-07-18T17:05:49.497Z,2.10
2023-07-18T17:08:20.373Z,2.60
2023-07-18T17:10:52.159Z,2.50
2023-07-18T17:13:22.817Z,2.20
2023-07-18T17:15:52.425Z,2.30
2023-07-18T17:18:24.179Z,2.60
2023-07-18T17:20:53.376Z,2.60
2023-07-18T17:23:22.777Z,2.50
2023-07-18T17:25:55.547Z,2.50
2023-07-18T17:28:30.489Z,2.30
2023-07-18T17:31:08.016Z,2.70
2023-07-18T17:33:39.636Z,3.00
2023-07-18T17:36:28.679Z,2.90
2023-07-18T17:39:00.472Z,2.60
2023-07-18T17:41:32.731Z,2.80
2023-07-18T17:46:31.313Z,2.60
2023-07-18T17:49:00.047Z,2.90
2023-07-18T17:51:30.124Z,2.90
2023-07-18T17:54:33.096Z,3.20
2023-07-18T17:57:26.212Z,2.90
2023-07-18T18:00:24.220Z,3.00
2023-07-18T18:02:53.126Z,2.80
2023-07-18T18:05:46.848Z,3.10
2023-07-18T18:08:26.389Z,3.30
2023-07-18T18:11:22.568Z,2.90
2023-07-18T18:14:04.392Z,3.10
2023-07-18T18:17:02.180Z,2.80
2023-07-18T18:19:33.505Z,3.40
2023-07-18T18:22:02.682Z,3.10
2023-07-18T18:24:46.339Z,3.20
2023-07-18T18:27:22.689Z,3.70
2023-07-18T18:30:32.205Z,3.10
2023-07-18T18:33:30.177Z,3.40
2023-07-18T18:36:16.503Z,3.30
2023-07-18T18:38:54.814Z,3.00
2023-07-18T18:41:34.845Z,3.10
2023-07-18T18:44:31.365Z,3.80
2023-07-18T18:47:02.369Z,4.40
2023-07-18T18:49:33.801Z,3.60
2023-07-18T18:52:02.481Z,4.80
2023-07-18T18:54:58.713Z,3.90
2023-07-18T18:57:37.368Z,4.30
2023-07-18T19:00:14.008Z,3.40
2023-07-18T19:02:45.147Z,3.70
2023-07-18T19:05:13.758Z,4.20
2023-07-18T19:07:42.305Z,4.00
2023-07-18T19:10:21.135Z,4.30
2023-07-18T19:13:27.501Z,4.80
2023-07-18T19:15:58.235Z,4.00
2023-07-18T19:18:26.983Z,3.70
2023-07-18T19:21:04.712Z,4.00
2023-07-18T19:23:33.307Z,4.20
2023-07-18T19:26:04.296Z,4.80
2023-07-18T19:28:33.644Z,4.60
2023-07-18T19:31:04.986Z,4.10
2023-07-18T19:33:36.694Z,4.40
2023-07-18T19:36:14.481Z,4.50
2023-07-18T19:38:57.944Z,4.20
2023-07-18T19:41:27.257Z,3.80
2023-07-18T19:43:59.037Z,4.60
2023-07-18T19:46:36.572Z,4.50
2023-07-18T19:49:17.616Z,4.60
2023-07-18T19:51:48.850Z,4.60
2023-07-18T19:54:17.939Z,4.80
2023-07-18T19:56:46.735Z,4.20
2023-07-18T19:59:36.115Z,4.20
2023-07-18T20:02:04.972Z,3.60
2023-07-18T20:04:35.978Z,4.50
2023-07-18T20:07:24.912Z,4.70
2023-07-18T20:09:55.592Z,4.20
2023-07-18T20:12:35.681Z,5.00
2023-07-18T20:15:07.845Z,4.50
2023-07-18T20:17:51.440Z,4.60
2023-07-18T20:20:36.874Z,4.80
2023-07-18T20:23:09.170Z,4.70
2023-07-18T20:25:40.907Z,5.10
2023-07-18T20:28:10.201Z,4.80
2023-07-18T20:30:39.071Z,4.70
2023-07-18T20:33:13.392Z,4.80
2023-07-18T20:35:41.946Z,4.00
2023-07-18T20:38:10.666Z,4.60
2023-07-18T20:40:39.568Z,4.20
2023-07-18T20:43:17.308Z,4.40
2023-07-18T20:46:14.926Z,4.50
2023-07-18T20:48:48.683Z,3.90
2023-07-18T20:51:29.404Z,3.90
2023-07-18T20:54:00.323Z,3.90
2023-07-18T20:56:35.073Z,4.40
2023-07-18T20:59:06.554Z,3.80
2023-07-18T21:01:37.639Z,4.50
2023-07-18T21:04:06.219Z,4.80
2023-07-18T21:06:44.257Z,4.80
2023-07-18T21:09:42.947Z,5.40
2023-07-18T21:12:14.777Z,5.00
2023-07-18T21:14:46.948Z,4.90
2023-07-18T21:17:15.516Z,4.80
2023-07-18T21:19:47.076Z,4.80
2023-07-18T21:22:27.390Z,4.70
2023-07-18T21:25:07.276Z,4.60
2023-07-18T21:27:55.953Z,5.00
2023-07-18T21:30:24.524Z,4.90
2023-07-18T21:32:53.646Z,5.00
2023-07-18T21:35:25.333Z,5.10
2023-07-18T21:38:17.470Z,4.50
2023-07-18T21:40:49.056Z,5.10
2023-07-18T21:43:18.416Z,5.00
2023-07-18T21:45:47.303Z,4.90
2023-07-18T21:48:15.925Z,5.40
2023-07-18T21:50:44.469Z,4.70
2023-07-18T21:53:14.043Z,5.10
2023-07-18T21:55:47.946Z,5.00
2023-07-18T21:58:26.535Z,4.80
2023-07-18T22:01:18.812Z,4.00
2023-07-18T22:03:47.877Z,4.20
2023-07-18T22:06:16.570Z,4.10
2023-07-18T22:08:45.254Z,4.00
2023-07-18T22:11:14.669Z,4.10
2023-07-18T22:13:43.570Z,3.60
2023-07-18T22:16:17.648Z,4.00
2023-07-18T22:18:57.941Z,4.00
2023-07-18T22:21:45.547Z,4.10
2023-07-18T22:24:16.478Z,4.00
2023-07-18T22:26:45.580Z,4.00
2023-07-18T22:29:16.816Z,4.50
2023-07-18T22:31:50.932Z,4.20
2023-07-18T22:34:19.717Z,4.50
2023-07-18T22:36:48.553Z,4.60
2023-07-18T22:39:37.330Z,4.70
2023-07-18T22:42:17.584Z,4.40
2023-07-18T22:44:49.999Z,4.00
2023-07-18T22:47:21.377Z,5.50
2023-07-18T22:49:55.571Z,4.30
2023-07-18T22:52:44.310Z,4.90
2023-07-18T22:55:13.199Z,5.40
2023-07-18T22:57:49.773Z,4.80
2023-07-18T23:00:18.867Z,4.60
2023-07-18T23:02:53.202Z,4.50
2023-07-18T23:05:24.426Z,4.70
2023-07-18T23:08:00.050Z,4.60
2023-07-18T23:10:28.884Z,4.70
2023-07-18T23:13:00.902Z,5.50
2023-07-18T23:15:30.359Z,4.30
2023-07-18T23:17:59.161Z,4.40
2023-07-18T23:20:37.944Z,4.20
2023-07-18T23:23:06.682Z,4.40
2023-07-18T23:25:35.518Z,3.90
2023-07-18T23:28:05.985Z,4.10
2023-07-18T23:30:37.430Z,4.10
2023-07-18T23:33:08.976Z,4.40
2023-07-18T23:35:38.141Z,3.80
2023-07-18T23:38:15.505Z,4.10
2023-07-18T23:40:45.662Z,4.80
2023-07-18T23:43:14.235Z,4.20
2023-07-18T23:45:42.818Z,4.60
2023-07-18T23:48:14.476Z,3.90
2023-07-18T23:50:43.054Z,4.30
2023-07-18T23:53:11.636Z,4.70
2023-07-18T23:55:45.594Z,4.60
2023-07-18T23:58:23.709Z,4.70
